Time;durP1;ratioP1;P1;durP2;ratioP2;P2;SDS_P1;SDS_P2;PMS_P1;PMS_P2;Temp;Humidity;BMP_temperature;BMP_pressure;BME280_temperature;BME280_humidity;BME280_pressure;Samples;Min_cycle;Max_cycle;Signal;HPM_P1;HPM_P2
2023/12/04 00:01:18;;;;;;;1999.90;999.90;;;;;;;;;;5025121;28;20251;-71
2023/12/04 00:03:48;;;;;;;1999.90;999.90;;;;;;;;;;5015561;28;20223;-71
2023/12/04 00:06:16;;;;;;;1999.90;999.90;;;;;;;;;;5025263;28;20229;-71
2023/12/04 00:08:43;;;;;;;1999.90;999.90;;;;;;;;;;5022782;28;20278;-72
2023/12/04 00:11:11;;;;;;;1999.90;999.90;;;;;;;;;;5026498;28;20224;-71
2023/12/04 00:13:40;;;;;;;1999.90;999.90;;;;;;;;;;5025175;28;20204;-71
2023/12/04 00:16:08;;;;;;;1999.90;999.90;;;;;;;;;;5028081;28;20214;-71
2023/12/04 00:18:36;;;;;;;1999.90;999.90;;;;;;;;;;5024082;28;20238;-71
2023/12/04 00:21:04;;;;;;;1999.90;999.90;;;;;;;;;;5026052;28;20694;-70
2023/12/04 00:23:31;;;;;;;1999.90;999.90;;;;;;;;;;5025937;28;20207;-71
2023/12/04 00:25:59;;;;;;;1999.90;999.90;;;;;;;;;;5025872;28;20535;-70
2023/12/04 00:28:28;;;;;;;1999.90;999.90;;;;;;;;;;5024866;28;20602;-70
2023/12/04 00:30:57;;;;;;;1999.90;999.90;;;;;;;;;;5024805;28;20301;-70
2023/12/04 00:33:24;;;;;;;1999.90;999.90;;;;;;;;;;5024630;28;20213;-70
2023/12/04 00:35:52;;;;;;;1999.90;999.90;;;;;;;;;;5005822;28;20215;-70
2023/12/04 00:38:20;;;;;;;1999.90;999.90;;;;;;;;;;5025928;28;20654;-70
2023/12/04 00:40:48;;;;;;;1999.90;999.90;;;;;;;;;;5024866;28;20235;-70
2023/12/04 00:43:15;;;;;;;1999.90;999.90;;;;;;;;;;5024549;28;20689;-70
2023/12/04 00:45:43;;;;;;;1999.90;999.90;;;;;;;;;;5025177;28;20251;-69
2023/12/04 00:48:12;;;;;;;1999.90;999.90;;;;;;;;;;5023411;28;20208;-69
2023/12/04 00:50:39;;;;;;;1999.90;999.90;;;;;;;;;;5023920;28;20199;-70
2023/12/04 00:53:07;;;;;;;1999.90;999.90;;;;;;;;;;5024449;28;20208;-69
2023/12/04 00:55:34;;;;;;;1999.90;999.90;;;;;;;;;;5025796;28;20210;-70
2023/12/04 00:58:02;;;;;;;1999.90;999.90;;;;;;;;;;5025774;28;20194;-70
2023/12/04 01:00:29;;;;;;;1999.90;999.90;;;;;;;;;;5023448;28;20226;-70
2023/12/04 01:02:56;;;;;;;1999.90;999.90;;;;;;;;;;5017148;28;20206;-70
2023/12/04 01:05:25;;;;;;;1999.90;999.90;;;;;;;;;;5024103;28;20214;-70
2023/12/04 01:07:54;;;;;;;1999.90;999.90;;;;;;;;;;5025763;28;20260;-71
2023/12/04 01:10:22;;;;;;;1999.90;999.90;;;;;;;;;;5020752;28;20199;-70
2023/12/04 01:12:50;;;;;;;1999.90;999.90;;;;;;;;;;5025089;28;20733;-70
2023/12/04 01:15:17;;;;;;;1999.90;999.90;;;;;;;;;;5007559;28;20206;-70
2023/12/04 01:17:45;;;;;;;1999.90;999.90;;;;;;;;;;5024006;28;20206;-70
2023/12/04 01:20:13;;;;;;;1999.90;999.90;;;;;;;;;;5025852;28;20222;-69
2023/12/04 01:22:42;;;;;;;1999.90;999.90;;;;;;;;;;5024678;28;20647;-70
2023/12/04 01:25:10;;;;;;;1999.90;999.90;;;;;;;;;;5025789;28;20202;-69
2023/12/04 01:27:39;;;;;;;1999.90;999.90;;;;;;;;;;5022713;28;20193;-69
2023/12/04 01:30:09;;;;;;;1999.90;999.90;;;;;;;;;;5025469;28;20852;-69
2023/12/04 01:32:36;;;;;;;1999.90;999.90;;;;;;;;;;5024097;28;20191;-69
2023/12/04 01:35:04;;;;;;;1999.90;999.90;;;;;;;;;;5023413;28;20296;-69
2023/12/04 01:37:32;;;;;;;1999.90;999.90;;;;;;;;;;5025212;28;20280;-70
2023/12/04 01:40:01;;;;;;;1999.90;999.90;;;;;;;;;;5023537;28;20501;-69
2023/12/04 01:42:28;;;;;;;1999.90;999.90;;;;;;;;;;5024441;28;20188;-68
2023/12/04 01:44:55;;;;;;;1999.90;999.90;;;;;;;;;;5022962;28;20211;-69
2023/12/04 01:47:25;;;;;;;1999.90;999.90;;;;;;;;;;5024649;28;20559;-69
2023/12/04 01:49:53;;;;;;;1999.90;999.90;;;;;;;;;;5024397;28;20240;-69
2023/12/04 01:52:20;;;;;;;1999.90;999.90;;;;;;;;;;5025279;28;20250;-68
2023/12/04 01:54:48;;;;;;;1999.90;999.90;;;;;;;;;;5023464;28;20643;-69
2023/12/04 01:57:17;;;;;;;1999.90;999.90;;;;;;;;;;5024932;28;20536;-69
2023/12/04 01:59:44;;;;;;;1999.90;999.90;;;;;;;;;;5027955;28;20218;-68
2023/12/04 02:02:13;;;;;;;1999.90;999.90;;;;;;;;;;5026842;28;20206;-69
2023/12/04 02:04:41;;;;;;;1999.90;999.90;;;;;;;;;;5011916;28;20727;-69
2023/12/04 02:07:09;;;;;;;1999.90;999.90;;;;;;;;;;5026826;28;20203;-68
2023/12/04 02:09:36;;;;;;;1999.90;999.90;;;;;;;;;;5010917;28;20259;-68
2023/12/04 02:12:04;;;;;;;1999.90;999.90;;;;;;;;;;5028029;28;20414;-67
2023/12/04 02:14:33;;;;;;;1999.90;999.90;;;;;;;;;;5010374;28;20214;-69
2023/12/04 02:17:02;;;;;;;1999.90;999.90;;;;;;;;;;5028883;28;20206;-68
2023/12/04 02:19:30;;;;;;;1999.90;999.90;;;;;;;;;;5026920;28;20563;-68
2023/12/04 02:21:57;;;;;;;1999.90;999.90;;;;;;;;;;5027885;28;21634;-68
2023/12/04 02:24:26;;;;;;;1999.90;999.90;;;;;;;;;;5026623;28;20583;-68
2023/12/04 02:26:55;;;;;;;1999.90;999.90;;;;;;;;;;5027658;28;20196;-68
2023/12/04 02:29:25;;;;;;;1999.90;999.90;;;;;;;;;;5009793;28;20205;-68
2023/12/04 02:31:53;;;;;;;1999.90;999.90;;;;;;;;;;5027447;28;20206;-68
2023/12/04 02:34:21;;;;;;;1999.90;999.90;;;;;;;;;;5027000;28;20206;-67
2023/12/04 02:36:50;;;;;;;1999.90;999.90;;;;;;;;;;5026542;28;20191;-68
2023/12/04 02:39:17;;;;;;;1999.90;999.90;;;;;;;;;;5027568;28;20194;-68
2023/12/04 02:41:46;;;;;;;1999.90;999.90;;;;;;;;;;5025757;28;20221;-68
2023/12/04 02:44:13;;;;;;;1999.90;999.90;;;;;;;;;;5028194;28;20201;-68
2023/12/04 02:46:41;;;;;;;1999.90;999.90;;;;;;;;;;5027005;28;20270;-68
2023/12/04 02:49:08;;;;;;;1999.90;999.90;;;;;;;;;;5009952;28;20201;-68
2023/12/04 02:51:35;;;;;;;1999.90;999.90;;;;;;;;;;5027551;28;20205;-68
2023/12/04 02:54:03;;;;;;;1999.90;999.90;;;;;;;;;;5026075;28;20754;-68
2023/12/04 02:56:30;;;;;;;1999.90;999.90;;;;;;;;;;5028880;28;20654;-68
2023/12/04 02:58:59;;;;;;;1999.90;999.90;;;;;;;;;;5026611;28;20210;-68
2023/12/04 03:01:27;;;;;;;1999.90;999.90;;;;;;;;;;5027560;28;21014;-68
2023/12/04 03:03:54;;;;;;;1999.90;999.90;;;;;;;;;;5022042;28;20196;-67
2023/12/04 03:06:21;;;;;;;1999.90;999.90;;;;;;;;;;5022870;28;20200;-68
2023/12/04 03:08:49;;;;;;;1999.90;999.90;;;;;;;;;;5019554;28;20204;-68
2023/12/04 03:11:16;;;;;;;1999.90;999.90;;;;;;;;;;5017429;28;20191;-68
2023/12/04 03:13:44;;;;;;;1999.90;999.90;;;;;;;;;;5021454;28;20284;-68
2023/12/04 03:16:18;;;;;;;1999.90;999.90;;;;;;;;;;5016054;28;20202;-68
2023/12/04 03:18:46;;;;;;;1999.90;999.90;;;;;;;;;;5019092;28;20191;-68
2023/12/04 03:21:13;;;;;;;1999.90;999.90;;;;;;;;;;5017695;28;20579;-68
2023/12/04 03:23:40;;;;;;;1999.90;999.90;;;;;;;;;;5020059;28;20234;-69
2023/12/04 03:26:08;;;;;;;1999.90;999.90;;;;;;;;;;5015213;28;20555;-68
2023/12/04 03:28:35;;;;;;;1999.90;999.90;;;;;;;;;;5016497;28;20642;-68
2023/12/04 03:31:03;;;;;;;1999.90;999.90;;;;;;;;;;5000402;28;20200;-69
2023/12/04 03:33:32;;;;;;;1999.90;999.90;;;;;;;;;;5022381;28;20218;-68
2023/12/04 03:36:00;;;;;;;1999.90;999.90;;;;;;;;;;5027274;28;20582;-69
2023/12/04 03:38:28;;;;;;;1999.90;999.90;;;;;;;;;;5027376;28;20680;-68
2023/12/04 03:40:55;;;;;;;1999.90;999.90;;;;;;;;;;5026728;28;20214;-69
2023/12/04 03:43:23;;;;;;;1999.90;999.90;;;;;;;;;;5027206;28;20221;-70
2023/12/04 03:45:50;;;;;;;1999.90;999.90;;;;;;;;;;5027915;28;20266;-70
2023/12/04 03:48:17;;;;;;;1999.90;999.90;;;;;;;;;;5027553;28;20195;-70
2023/12/04 03:50:46;;;;;;;1999.90;999.90;;;;;;;;;;5026956;28;20202;-67
2023/12/04 03:53:14;;;;;;;1999.90;999.90;;;;;;;;;;5026711;28;20200;-68
2023/12/04 03:55:41;;;;;;;1999.90;999.90;;;;;;;;;;5025463;28;20222;-67
2023/12/04 03:58:08;;;;;;;1999.90;999.90;;;;;;;;;;5025738;28;20192;-68
2023/12/04 04:00:40;;;;;;;1999.90;999.90;;;;;;;;;;5024690;28;20228;-68
2023/12/04 04:03:08;;;;;;;1999.90;999.90;;;;;;;;;;5025621;28;20182;-67
2023/12/04 04:05:36;;;;;;;1999.90;999.90;;;;;;;;;;5025860;28;20206;-67
2023/12/04 04:08:06;;;;;;;1999.90;999.90;;;;;;;;;;5022533;28;20270;-67
2023/12/04 04:10:33;;;;;;;1999.90;999.90;;;;;;;;;;5025617;28;20207;-67
2023/12/04 04:13:00;;;;;;;1999.90;999.90;;;;;;;;;;5026757;28;20544;-67
2023/12/04 04:15:28;;;;;;;1999.90;999.90;;;;;;;;;;5026725;28;20197;-67
2023/12/04 04:17:55;;;;;;;1999.90;999.90;;;;;;;;;;5025077;28;20245;-67
2023/12/04 04:20:25;;;;;;;1999.90;999.90;;;;;;;;;;5025948;28;20200;-67
2023/12/04 04:22:53;;;;;;;1999.90;999.90;;;;;;;;;;5027059;28;20198;-67
2023/12/04 04:25:23;;;;;;;1999.90;999.90;;;;;;;;;;5026083;28;20404;-67
2023/12/04 04:27:51;;;;;;;1999.90;999.90;;;;;;;;;;5027051;28;20203;-67
2023/12/04 04:30:18;;;;;;;1999.90;999.90;;;;;;;;;;5020684;28;20670;-67
2023/12/04 04:32:46;;;;;;;1999.90;999.90;;;;;;;;;;5024561;28;20202;-67
2023/12/04 04:35:13;;;;;;;1999.90;999.90;;;;;;;;;;5024844;28;20203;-67
2023/12/04 04:37:40;;;;;;;1999.90;999.90;;;;;;;;;;5024263;28;20676;-67
2023/12/04 04:40:08;;;;;;;1999.90;999.90;;;;;;;;;;5025473;28;20202;-68
2023/12/04 04:42:37;;;;;;;1999.90;999.90;;;;;;;;;;5024717;28;20280;-66
2023/12/04 04:45:05;;;;;;;1999.90;999.90;;;;;;;;;;5025668;28;20202;-67
2023/12/04 04:47:32;;;;;;;1999.90;999.90;;;;;;;;;;5024168;28;20195;-67
2023/12/04 04:49:59;;;;;;;1999.90;999.90;;;;;;;;;;5026040;28;20201;-67
2023/12/04 04:52:27;;;;;;;1999.90;999.90;;;;;;;;;;5024898;28;20197;-67
2023/12/04 04:54:54;;;;;;;1999.90;999.90;;;;;;;;;;5024602;28;20199;-67
2023/12/04 04:57:21;;;;;;;1999.90;999.90;;;;;;;;;;5018803;28;20214;-67
2023/12/04 04:59:50;;;;;;;1999.90;999.90;;;;;;;;;;5006520;28;20186;-67
2023/12/04 05:02:18;;;;;;;1999.90;999.90;;;;;;;;;;5007155;28;20229;-68
2023/12/04 05:04:45;;;;;;;1999.90;999.90;;;;;;;;;;5006946;28;20202;-67
2023/12/04 05:07:12;;;;;;;1999.90;999.90;;;;;;;;;;5005375;28;20206;-67
2023/12/04 05:09:40;;;;;;;1999.90;999.90;;;;;;;;;;5007108;28;20198;-67
2023/12/04 05:12:07;;;;;;;1999.90;999.90;;;;;;;;;;5006465;28;20206;-68
2023/12/04 05:14:35;;;;;;;1999.90;999.90;;;;;;;;;;5007241;28;20206;-68
2023/12/04 05:17:11;;;;;;;1999.90;999.90;;;;;;;;;;5006533;28;20811;-68
2023/12/04 05:19:39;;;;;;;1999.90;999.90;;;;;;;;;;5006980;28;20207;-68
2023/12/04 05:22:06;;;;;;;1999.90;999.90;;;;;;;;;;5006161;28;20239;-67
2023/12/04 05:24:35;;;;;;;1999.90;999.90;;;;;;;;;;5007183;28;20203;-68
2023/12/04 05:27:02;;;;;;;1999.90;999.90;;;;;;;;;;5006158;28;20202;-68
2023/12/04 05:29:29;;;;;;;1999.90;999.90;;;;;;;;;;5004301;28;20295;-69
2023/12/04 05:31:57;;;;;;;1999.90;999.90;;;;;;;;;;5007262;28;20658;-68
2023/12/04 05:34:26;;;;;;;1999.90;999.90;;;;;;;;;;5008157;28;20771;-68
2023/12/04 05:36:53;;;;;;;1999.90;999.90;;;;;;;;;;5011163;28;20381;-68
2023/12/04 05:39:20;;;;;;;1999.90;999.90;;;;;;;;;;5009536;28;20206;-68
2023/12/04 05:41:49;;;;;;;1999.90;999.90;;;;;;;;;;5009493;28;20210;-68
2023/12/04 05:44:16;;;;;;;1999.90;999.90;;;;;;;;;;5008991;28;20543;-67
2023/12/04 05:46:43;;;;;;;1999.90;999.90;;;;;;;;;;5010350;28;20217;-67
2023/12/04 05:49:11;;;;;;;1999.90;999.90;;;;;;;;;;5009634;28;20208;-68
2023/12/04 05:51:39;;;;;;;1999.90;999.90;;;;;;;;;;5009212;28;20209;-68
2023/12/04 05:54:08;;;;;;;1999.90;999.90;;;;;;;;;;5009845;28;20544;-67
2023/12/04 05:56:35;;;;;;;1999.90;999.90;;;;;;;;;;5009619;28;20234;-67
2023/12/04 05:59:03;;;;;;;1999.90;999.90;;;;;;;;;;5010164;28;20198;-66
2023/12/04 06:01:30;;;;;;;1999.90;999.90;;;;;;;;;;5008754;28;20341;-68
2023/12/04 06:03:57;;;;;;;1999.90;999.90;;;;;;;;;;5008554;28;20200;-66
2023/12/04 06:06:25;;;;;;;1999.90;999.90;;;;;;;;;;5010003;28;20198;-67
2023/12/04 06:08:55;;;;;;;1999.90;999.90;;;;;;;;;;5009411;28;20240;-68
2023/12/04 06:11:22;;;;;;;1999.90;999.90;;;;;;;;;;5009743;28;20585;-67
2023/12/04 06:13:49;;;;;;;1999.90;999.90;;;;;;;;;;5009220;28;20202;-67
2023/12/04 06:16:17;;;;;;;1999.90;999.90;;;;;;;;;;5010027;28;20200;-68
2023/12/04 06:18:45;;;;;;;1999.90;999.90;;;;;;;;;;5010446;28;20209;-67
2023/12/04 06:21:12;;;;;;;1999.90;999.90;;;;;;;;;;5009423;28;20196;-67
2023/12/04 06:23:41;;;;;;;1999.90;999.90;;;;;;;;;;5008486;28;20211;-68
2023/12/04 06:26:12;;;;;;;1999.90;999.90;;;;;;;;;;5009239;28;20206;-67
2023/12/04 06:28:39;;;;;;;1999.90;999.90;;;;;;;;;;5009682;28;20674;-66
2023/12/04 06:31:10;;;;;;;1999.90;999.90;;;;;;;;;;5008799;28;20206;-66
2023/12/04 06:33:37;;;;;;;1999.90;999.90;;;;;;;;;;5008657;28;20261;-67
2023/12/04 06:36:06;;;;;;;1999.90;999.90;;;;;;;;;;5027191;28;20198;-67
2023/12/04 06:38:34;;;;;;;1999.90;999.90;;;;;;;;;;5028192;28;20202;-67
2023/12/04 06:41:02;;;;;;;1999.90;999.90;;;;;;;;;;5028701;28;20202;-67
2023/12/04 06:43:33;;;;;;;1999.90;999.90;;;;;;;;;;5026089;28;20222;-67
2023/12/04 06:46:00;;;;;;;1999.90;999.90;;;;;;;;;;5017836;28;20217;-69
2023/12/04 06:48:28;;;;;;;1999.90;999.90;;;;;;;;;;5008327;28;20197;-68
2023/12/04 06:50:55;;;;;;;1999.90;999.90;;;;;;;;;;5021012;28;20201;-69
2023/12/04 06:53:23;;;;;;;1999.90;999.90;;;;;;;;;;5026931;28;20643;-67
2023/12/04 06:55:50;;;;;;;1999.90;999.90;;;;;;;;;;5023038;28;20203;-70
2023/12/04 06:58:17;;;;;;;1999.90;999.90;;;;;;;;;;5016455;28;20207;-68
2023/12/04 07:00:46;;;;;;;1999.90;999.90;;;;;;;;;;5026235;28;20887;-67
2023/12/04 07:03:13;;;;;;;1999.90;999.90;;;;;;;;;;5024536;28;20212;-68
2023/12/04 07:05:41;;;;;;;1999.90;999.90;;;;;;;;;;5025516;28;20206;-68
2023/12/04 07:08:08;;;;;;;1999.90;999.90;;;;;;;;;;5026208;28;20352;-71
2023/12/04 07:10:35;;;;;;;1999.90;999.90;;;;;;;;;;5027360;28;20286;-72
2023/12/04 07:13:03;;;;;;;1999.90;999.90;;;;;;;;;;5025264;28;20203;-69
2023/12/04 07:15:30;;;;;;;1999.90;999.90;;;;;;;;;;5011866;28;20203;-68
2023/12/04 07:17:59;;;;;;;1999.90;999.90;;;;;;;;;;5009625;28;20531;-72
2023/12/04 07:20:26;;;;;;;1999.90;999.90;;;;;;;;;;5009139;28;20196;-67
2023/12/04 07:22:53;;;;;;;1999.90;999.90;;;;;;;;;;5009649;28;20222;-66
2023/12/04 07:25:21;;;;;;;1999.90;999.90;;;;;;;;;;5010505;28;20206;-74
2023/12/04 07:27:48;;;;;;;1999.90;999.90;;;;;;;;;;5009837;28;21820;-71
2023/12/04 07:30:15;;;;;;;1999.90;999.90;;;;;;;;;;5008589;28;20194;-74
2023/12/04 07:32:43;;;;;;;1999.90;999.90;;;;;;;;;;5013634;28;20211;-67
2023/12/04 07:35:11;;;;;;;1999.90;999.90;;;;;;;;;;5015936;28;20198;-72
2023/12/04 07:37:39;;;;;;;1999.90;999.90;;;;;;;;;;5020791;28;20228;-74
2023/12/04 07:40:08;;;;;;;1999.90;999.90;;;;;;;;;;5024930;28;20206;-66
2023/12/04 07:42:35;;;;;;;1999.90;999.90;;;;;;;;;;5025860;28;20756;-74
2023/12/04 07:45:03;;;;;;;1999.90;999.90;;;;;;;;;;5026240;28;20239;-66
2023/12/04 07:47:31;;;;;;;1999.90;999.90;;;;;;;;;;5024526;28;20194;-66
2023/12/04 07:49:59;;;;;;;1999.90;999.90;;;;;;;;;;5026734;28;20208;-66
2023/12/04 07:52:28;;;;;;;1999.90;999.90;;;;;;;;;;5020563;28;20195;-66
2023/12/04 07:54:56;;;;;;;1999.90;999.90;;;;;;;;;;5021578;28;20282;-66
2023/12/04 07:57:24;;;;;;;1999.90;999.90;;;;;;;;;;5020624;28;20219;-67
2023/12/04 07:59:51;;;;;;;1999.90;999.90;;;;;;;;;;5012495;28;20204;-67
2023/12/04 08:02:19;;;;;;;1999.90;999.90;;;;;;;;;;5026521;28;20605;-67
2023/12/04 08:04:47;;;;;;;1999.90;999.90;;;;;;;;;;5023342;28;20214;-67
2023/12/04 08:07:14;;;;;;;1999.90;999.90;;;;;;;;;;5027057;28;21123;-67
2023/12/04 08:09:43;;;;;;;1999.90;999.90;;;;;;;;;;5014015;28;20207;-66
2023/12/04 08:12:11;;;;;;;1999.90;999.90;;;;;;;;;;5023749;28;20222;-68
2023/12/04 08:14:38;;;;;;;1999.90;999.90;;;;;;;;;;5024635;28;20208;-67
2023/12/04 08:17:06;;;;;;;1999.90;999.90;;;;;;;;;;5025461;28;20231;-69
2023/12/04 08:19:33;;;;;;;1999.90;999.90;;;;;;;;;;5023256;28;20227;-67
2023/12/04 08:22:01;;;;;;;1999.90;999.90;;;;;;;;;;5025770;28;20216;-67
2023/12/04 08:24:28;;;;;;;1999.90;999.90;;;;;;;;;;5024532;28;20207;-68
2023/12/04 08:26:58;;;;;;;1999.90;999.90;;;;;;;;;;5026502;28;20200;-67
2023/12/04 08:29:25;;;;;;;1999.90;999.90;;;;;;;;;;5011476;28;20199;-68
2023/12/04 08:31:54;;;;;;;1999.90;999.90;;;;;;;;;;5007116;28;20234;-67
2023/12/04 08:34:21;;;;;;;1999.90;999.90;;;;;;;;;;5008526;28;20200;-69
2023/12/04 08:36:48;;;;;;;1999.90;999.90;;;;;;;;;;5011795;28;20250;-68
2023/12/04 08:39:18;;;;;;;1999.90;999.90;;;;;;;;;;5007920;28;20622;-67
2023/12/04 08:41:47;;;;;;;1999.90;999.90;;;;;;;;;;5005408;28;20219;-68
2023/12/04 08:44:16;;;;;;;1999.90;999.90;;;;;;;;;;5007527;28;20224;-68
2023/12/04 08:46:43;;;;;;;1999.90;999.90;;;;;;;;;;5024830;28;20200;-68
2023/12/04 08:49:11;;;;;;;1999.90;999.90;;;;;;;;;;5013430;28;20206;-67
2023/12/04 08:51:38;;;;;;;1999.90;999.90;;;;;;;;;;5007359;28;20195;-67
2023/12/04 08:54:05;;;;;;;1999.90;999.90;;;;;;;;;;5006736;28;20543;-67
2023/12/04 08:56:33;;;;;;;1999.90;999.90;;;;;;;;;;5007165;28;20200;-68
2023/12/04 08:59:00;;;;;;;1999.90;999.90;;;;;;;;;;5007554;28;20211;-68
2023/12/04 09:01:29;;;;;;;1999.90;999.90;;;;;;;;;;5006965;28;20231;-67
2023/12/04 09:03:57;;;;;;;1999.90;999.90;;;;;;;;;;5006468;28;20282;-67
2023/12/04 09:06:24;;;;;;;1999.90;999.90;;;;;;;;;;5006992;28;20200;-68
2023/12/04 09:08:51;;;;;;;1999.90;999.90;;;;;;;;;;5008158;28;20197;-68
2023/12/04 09:11:18;;;;;;;1999.90;999.90;;;;;;;;;;5018454;28;20887;-68
2023/12/04 09:13:46;;;;;;;1999.90;999.90;;;;;;;;;;5018909;28;20207;-68
2023/12/04 09:16:13;;;;;;;1999.90;999.90;;;;;;;;;;5025938;28;20196;-67
2023/12/04 09:18:42;;;;;;;1999.90;999.90;;;;;;;;;;5020670;28;20370;-68
2023/12/04 09:21:09;;;;;;;1999.90;999.90;;;;;;;;;;5023983;28;20192;-68
2023/12/04 09:23:37;;;;;;;1999.90;999.90;;;;;;;;;;5024652;28;20223;-67
2023/12/04 09:26:04;;;;;;;1999.90;999.90;;;;;;;;;;5024445;28;20187;-67
2023/12/04 09:28:32;;;;;;;1999.90;999.90;;;;;;;;;;5024376;28;20570;-68
2023/12/04 09:30:59;;;;;;;1999.90;999.90;;;;;;;;;;5024906;28;20209;-68
2023/12/04 09:33:26;;;;;;;1999.90;999.90;;;;;;;;;;5025607;28;20203;-66
2023/12/04 09:35:55;;;;;;;1999.90;999.90;;;;;;;;;;5024952;28;20584;-67
2023/12/04 09:38:22;;;;;;;1999.90;999.90;;;;;;;;;;5023915;28;20196;-67
2023/12/04 09:40:51;;;;;;;1999.90;999.90;;;;;;;;;;5010869;28;20209;-71
2023/12/04 09:43:18;;;;;;;1999.90;999.90;;;;;;;;;;5022278;28;20781;-70
2023/12/04 09:45:46;;;;;;;1999.90;999.90;;;;;;;;;;5024472;28;20211;-67
2023/12/04 09:48:13;;;;;;;1999.90;999.90;;;;;;;;;;5021927;28;20211;-67
2023/12/04 09:50:41;;;;;;;1999.90;999.90;;;;;;;;;;5015419;28;20200;-69
2023/12/04 09:53:13;;;;;;;1999.90;999.90;;;;;;;;;;5006944;28;21013;-68
2023/12/04 09:55:40;;;;;;;1999.90;999.90;;;;;;;;;;5003861;28;20299;-68
2023/12/04 09:58:08;;;;;;;1999.90;999.90;;;;;;;;;;5006008;28;20203;-69
2023/12/04 10:00:36;;;;;;;1999.90;999.90;;;;;;;;;;5005231;28;20692;-68
2023/12/04 10:03:05;;;;;;;1999.90;999.90;;;;;;;;;;5005735;28;20217;-68
2023/12/04 10:05:32;;;;;;;1999.90;999.90;;;;;;;;;;5006493;28;20232;-69
2023/12/04 10:07:59;;;;;;;1999.90;999.90;;;;;;;;;;5004723;28;20210;-70
2023/12/04 10:10:28;;;;;;;1999.90;999.90;;;;;;;;;;5005689;28;20598;-68
2023/12/04 10:12:58;;;;;;;1999.90;999.90;;;;;;;;;;5004907;28;20251;-68
2023/12/04 10:15:25;;;;;;;1999.90;999.90;;;;;;;;;;5005531;28;20201;-68
2023/12/04 10:17:54;;;;;;;1999.90;999.90;;;;;;;;;;5006220;28;20637;-69
2023/12/04 10:20:23;;;;;;;1999.90;999.90;;;;;;;;;;5008308;28;20203;-68
2023/12/04 10:22:54;;;;;;;1999.90;999.90;;;;;;;;;;5010456;28;20968;-69
2023/12/04 10:25:25;;;;;;;1999.90;999.90;;;;;;;;;;5024681;28;20705;-69
2023/12/04 10:27:54;;;;;;;1999.90;999.90;;;;;;;;;;5010276;28;20188;-70
2023/12/04 10:30:24;;;;;;;1999.90;999.90;;;;;;;;;;5009603;28;20914;-69
2023/12/04 10:32:55;;;;;;;1999.90;999.90;;;;;;;;;;5007794;28;20820;-69
2023/12/04 10:35:23;;;;;;;1999.90;999.90;;;;;;;;;;5009903;28;20283;-70
2023/12/04 10:37:51;;;;;;;1999.90;999.90;;;;;;;;;;5009628;28;20271;-69
2023/12/04 10:40:24;;;;;;;1999.90;999.90;;;;;;;;;;5010129;28;20242;-68
2023/12/04 10:42:51;;;;;;;1999.90;999.90;;;;;;;;;;5017775;28;20227;-68
2023/12/04 10:45:22;;;;;;;1999.90;999.90;;;;;;;;;;5013058;28;20265;-71
2023/12/04 10:47:51;;;;;;;1999.90;999.90;;;;;;;;;;5007920;28;20197;-72
2023/12/04 10:50:19;;;;;;;1999.90;999.90;;;;;;;;;;5009665;28;20271;-66
2023/12/04 10:52:49;;;;;;;1999.90;999.90;;;;;;;;;;5010432;28;20212;-66
2023/12/04 10:55:16;;;;;;;1999.90;999.90;;;;;;;;;;5009640;28;20203;-65
2023/12/04 10:57:46;;;;;;;1999.90;999.90;;;;;;;;;;5009957;28;20665;-66
2023/12/04 11:00:16;;;;;;;1999.90;999.90;;;;;;;;;;5008954;28;20727;-69
2023/12/04 11:02:48;;;;;;;1999.90;999.90;;;;;;;;;;5009679;28;20195;-67
2023/12/04 11:05:17;;;;;;;1999.90;999.90;;;;;;;;;;5009386;28;20184;-66
2023/12/04 11:07:46;;;;;;;1999.90;999.90;;;;;;;;;;5009870;28;20204;-66
2023/12/04 11:10:14;;;;;;;1999.90;999.90;;;;;;;;;;5020152;28;20195;-69
2023/12/04 11:12:46;;;;;;;1999.90;999.90;;;;;;;;;;5009550;28;20217;-68
2023/12/04 11:15:15;;;;;;;1999.90;999.90;;;;;;;;;;5008010;28;20200;-66
2023/12/04 11:17:44;;;;;;;1999.90;999.90;;;;;;;;;;5010552;28;20887;-68
2023/12/04 11:20:16;;;;;;;1999.90;999.90;;;;;;;;;;5008778;28;20212;-69
2023/12/04 11:22:44;;;;;;;1999.90;999.90;;;;;;;;;;5009026;28;20215;-67
2023/12/04 11:25:12;;;;;;;1999.90;999.90;;;;;;;;;;5019270;28;20602;-68
2023/12/04 11:27:40;;;;;;;1999.90;999.90;;;;;;;;;;5026345;28;20203;-70
2023/12/04 11:30:08;;;;;;;1999.90;999.90;;;;;;;;;;5017693;28;20200;-69
2023/12/04 11:32:45;;;;;;;1999.90;999.90;;;;;;;;;;5014187;28;20698;-68
2023/12/04 11:35:17;;;;;;;1999.90;999.90;;;;;;;;;;5020072;28;20214;-67
2023/12/04 11:37:45;;;;;;;1999.90;999.90;;;;;;;;;;5016228;28;20254;-68
2023/12/04 11:40:14;;;;;;;1999.90;999.90;;;;;;;;;;5015478;28;20196;-68
2023/12/04 11:42:41;;;;;;;1999.90;999.90;;;;;;;;;;5022146;28;20195;-67
2023/12/04 11:45:09;;;;;;;1999.90;999.90;;;;;;;;;;5015103;28;20224;-67
2023/12/04 11:47:52;;;;;;;1999.90;999.90;;;;;;;;;;5025601;28;20215;-67
2023/12/04 11:50:21;;;;;;;1999.90;999.90;;;;;;;;;;5025794;28;20196;-67
2023/12/04 11:52:49;;;;;;;1999.90;999.90;;;;;;;;;;5026543;28;20198;-67
2023/12/04 11:55:19;;;;;;;1999.90;999.90;;;;;;;;;;5023364;28;20199;-68
2023/12/04 11:57:47;;;;;;;1999.90;999.90;;;;;;;;;;5026175;28;20611;-68
2023/12/04 12:00:16;;;;;;;1999.90;999.90;;;;;;;;;;5022427;28;20629;-67
2023/12/04 12:02:49;;;;;;;1999.90;999.90;;;;;;;;;;5027190;28;20687;-68
2023/12/04 12:05:16;;;;;;;1999.90;999.90;;;;;;;;;;5023976;28;20258;-68
2023/12/04 12:07:45;;;;;;;1999.90;999.90;;;;;;;;;;5026586;28;20200;-68
2023/12/04 12:10:13;;;;;;;1999.90;999.90;;;;;;;;;;5024171;28;20204;-69
2023/12/04 12:12:41;;;;;;;1999.90;999.90;;;;;;;;;;5026545;28;20200;-68
2023/12/04 12:15:10;;;;;;;1999.90;999.90;;;;;;;;;;5026995;28;20199;-68
2023/12/04 12:17:39;;;;;;;1999.90;999.90;;;;;;;;;;5025308;28;20231;-68
2023/12/04 12:20:07;;;;;;;1999.90;999.90;;;;;;;;;;5025392;28;20193;-69
2023/12/04 12:22:35;;;;;;;1999.90;999.90;;;;;;;;;;5017852;28;20211;-69
2023/12/04 12:25:06;;;;;;;1999.90;999.90;;;;;;;;;;5015440;28;20287;-69
2023/12/04 12:27:33;;;;;;;1999.90;999.90;;;;;;;;;;5012470;28;20204;-69
2023/12/04 12:30:01;;;;;;;1999.90;999.90;;;;;;;;;;5023844;28;20207;-69
2023/12/04 12:32:27;;;;;;;1999.90;999.90;;;;;;;;;;5026625;28;20202;-69
2023/12/04 12:34:55;;;;;;;1999.90;999.90;;;;;;;;;;5012200;28;20277;-69
2023/12/04 12:37:22;;;;;;;1999.90;999.90;;;;;;;;;;5023931;28;20258;-69
2023/12/04 12:39:50;;;;;;;1999.90;999.90;;;;;;;;;;5025860;28;20578;-68
2023/12/04 12:42:24;;;;;;;1999.90;999.90;;;;;;;;;;5025333;28;20279;-68
2023/12/04 12:44:51;;;;;;;1999.90;999.90;;;;;;;;;;5025496;28;20247;-68
2023/12/04 12:47:19;;;;;;;1999.90;999.90;;;;;;;;;;5024900;28;20234;-68
2023/12/04 12:49:47;;;;;;;1999.90;999.90;;;;;;;;;;5010184;28;21416;-69
2023/12/04 12:52:14;;;;;;;1999.90;999.90;;;;;;;;;;5005559;28;20203;-68
2023/12/04 12:54:42;;;;;;;1999.90;999.90;;;;;;;;;;5017046;28;20740;-68
2023/12/04 12:57:11;;;;;;;1999.90;999.90;;;;;;;;;;5033389;28;20645;-68
2023/12/04 12:59:40;;;;;;;1999.90;999.90;;;;;;;;;;5025122;28;20232;-67
2023/12/04 13:02:07;;;;;;;1999.90;999.90;;;;;;;;;;5024086;28;20234;-66
2023/12/04 13:04:38;;;;;;;1999.90;999.90;;;;;;;;;;5012142;28;20694;-67
2023/12/04 13:07:06;;;;;;;1999.90;999.90;;;;;;;;;;5013293;28;20192;-66
2023/12/04 13:09:35;;;;;;;1999.90;999.90;;;;;;;;;;5019895;28;20254;-67
2023/12/04 13:12:03;;;;;;;1999.90;999.90;;;;;;;;;;5025530;28;20193;-67
2023/12/04 13:14:30;;;;;;;1999.90;999.90;;;;;;;;;;5025862;28;20208;-67
2023/12/04 13:16:59;;;;;;;1999.90;999.90;;;;;;;;;;5026476;28;20593;-67
2023/12/04 13:19:27;;;;;;;1999.90;999.90;;;;;;;;;;5025335;28;20211;-66
2023/12/04 13:21:54;;;;;;;1999.90;999.90;;;;;;;;;;5026203;28;20579;-67
2023/12/04 13:24:21;;;;;;;1999.90;999.90;;;;;;;;;;5024353;28;20243;-66
2023/12/04 13:26:49;;;;;;;1999.90;999.90;;;;;;;;;;5025805;28;20199;-67
2023/12/04 13:29:17;;;;;;;1999.90;999.90;;;;;;;;;;5025836;28;20203;-67
2023/12/04 13:31:46;;;;;;;1999.90;999.90;;;;;;;;;;5025775;28;20196;-67
2023/12/04 13:34:15;;;;;;;1999.90;999.90;;;;;;;;;;5025527;28;20185;-66
2023/12/04 13:36:42;;;;;;;1999.90;999.90;;;;;;;;;;5025790;28;20200;-67
2023/12/04 13:39:16;;;;;;;1999.90;999.90;;;;;;;;;;5025207;28;20200;-67
2023/12/04 13:44:29;;;;;;;1999.90;999.90;;;;;;;;;;5005542;28;20247;-68
2023/12/04 13:46:57;;;;;;;1999.90;999.90;;;;;;;;;;5006440;28;20224;-68
2023/12/04 13:49:25;;;;;;;1999.90;999.90;;;;;;;;;;5004076;28;20617;-67